Weather observations for the past three days for
Tyndall Air Force Base
| Date | Time (cdt) | Wind (mph) | Vis. (mi.) | Weather | Sky Cond. | Temperature (ºF) | Relative Humidity | Wind Chill (°F) | Heat Index (°F) | Pressure | Precipitation (in) | ||||||
|---|---|---|---|---|---|---|---|---|---|---|---|---|---|---|---|---|---|
| Air | Dwpt | 6 hour | altimeter (in) | sea level (mb) | 1 hr | 3 hr | 6 hr | ||||||||||
| Max. | Min. | ||||||||||||||||
| 06 | 00:55 | S 8 | 10.00 | Fair | CLR | 72.5 | 70 | 74.3 | 70.5 | 92% | 29.95 | 1014.5 | |||||
| 05 | 23:55 | S 9 | 10.00 | Fair | CLR | 72 | 69.4 | 92% | 29.96 | 1014.8 | |||||||
| 05 | 22:55 | S 7 | 10.00 | Fair | CLR | 70.9 | 68.7 | 93% | 29.98 | 1015.5 | |||||||
| 05 | 21:55 | S 8 | 10.00 | Fair | CLR | 72.9 | 69.6 | 90% | 29.97 | 1015.2 | |||||||
| 05 | 20:55 | S 9 | 10.00 | Fair | CLR | 73 | 69.3 | 88% | 29.97 | 1015.2 | |||||||
| 05 | 19:55 | S 9 | 10.00 | Fair | CLR | 73.2 | 68.7 | 86% | 29.95 | 1014.5 | |||||||
| 05 | 18:55 | S 15 | 10.00 | Fair | CLR | 74.5 | 68.9 | 80.8 | 74.5 | 83% | 29.95 | 1014.5 | |||||
| 05 | 17:55 | S 16 | 10.00 | Fair | CLR | 75.9 | 68.2 | 77% | 77 | 29.95 | 1014.5 | ||||||
| 05 | 16:55 | S 18 | 10.00 | Fair | CLR | 77.7 | 66.2 | 68% | 80 | 29.95 | 1014.5 | ||||||
| 05 | 15:55 | S 20 | 10.00 | Fair | CLR | 78.6 | 65.8 | 65% | 81 | 29.95 | 1014.5 | ||||||
| 05 | 14:55 | S 15 | 10.00 | Fair | CLR | 79.3 | 59.5 | 51% | 80 | 29.97 | 1015.2 | ||||||
| 05 | 13:55 | S 15 | 10.00 | A Few Clouds | FEW190 | 80.4 | 55.8 | 43% | 80 | 29.99 | 1015.9 | ||||||
| 05 | 12:55 | S 13 | 10.00 | Partly Cloudy | SCT042 SCT200 | 79.5 | 60.8 | 79.5 | 63 | 53% | 81 | 29.99 | 1015.9 | ||||
| 05 | 11:55 | S 14 | 10.00 | Partly Cloudy | FEW100 SCT190 | 79.3 | 60.1 | 52% | 80 | 30 | 1016.2 | ||||||
| 05 | 10:55 | S 10 | 10.00 | A Few Clouds | FEW200 | 78.1 | 55.6 | 46% | 79 | 30 | 1016.2 | ||||||
| 05 | 09:55 | SE 7 | 10.00 | A Few Clouds | FEW200 | 74.7 | 57.9 | 56% | 30 | 1016.2 | |||||||
| 05 | 08:55 | SE 9 | 10.00 | Fair | CLR | 70.5 | 58.1 | 65% | 29.99 | 1015.9 | |||||||
| 05 | 07:55 | E 5 | 10.00 | Partly Cloudy | FEW039 SCT200 | 64.9 | 59 | 81% | 29.99 | 1015.9 | |||||||
| 05 | 06:55 | E 5 | 10.00 | Partly Cloudy | SCT042 | 62.8 | 58.1 | 62.8 | 57.4 | 85% | 29.98 | 1015.5 | |||||
| 05 | 05:55 | E 5 | 10.00 | A Few Clouds | FEW040 | 59.9 | 56.7 | 89% | 29.96 | 1014.8 | |||||||
| 05 | 04:55 | E 7 | 10.00 | A Few Clouds | FEW034 | 60.8 | 57.9 | 90% | 29.96 | 1014.8 | |||||||
| 05 | 03:55 | E 3 | 10.00 | Fair | CLR | 58.1 | 55.4 | 91% | 29.94 | 1014.2 | |||||||
| 05 | 02:55 | E 3 | 10.00 | Fair | CLR | 57.4 | 55 | 92% | 29.93 | 1013.8 | |||||||
| 05 | 01:55 | E 5 | 10.00 | Fair | CLR | 58.3 | 55.4 | 90% | 29.94 | 1014.2 | |||||||
| 05 | 00:55 | Calm | 10.00 | Fair | CLR | 59.4 | 55.4 | 72.1 | 59 | 87% | 29.95 | 1014.5 | |||||
| 04 | 23:55 | Calm | 10.00 | Fair | CLR | 59 | 54.5 | 85% | 29.96 | 1014.8 | |||||||
| 04 | 22:55 | W 3 | 10.00 | Fair | CLR | 61 | 55.8 | 83% | 29.97 | 1015.2 | |||||||
| 04 | 21:55 | W 3 | 10.00 | Fair | CLR | 68 | 55.8 | 65% | 29.98 | 1015.5 | |||||||
| 04 | 20:55 | SW 6 | 10.00 | Fair | CLR | 68.9 | 55.8 | 63% | 29.98 | 1015.5 | |||||||
| 04 | 19:55 | SW 7 | 10.00 | Fair | CLR | 69.6 | 55.9 | 62% | 29.99 | 1015.9 | |||||||
| 04 | 18:55 | SW 8 | 10.00 | Fair | CLR | 72.3 | 53.2 | 76.6 | 72.3 | 51% | 29.98 | 1015.5 | |||||
| 04 | 17:55 | SW 12 | 10.00 | Fair | CLR | 74.1 | 48.9 | 41% | 29.98 | 1015.5 | |||||||
| 04 | 16:55 | SW 13 | 10.00 | Fair | CLR | 74.8 | 50.9 | 43% | 29.98 | 1015.5 | |||||||
| 04 | 15:55 | SW 14 | 10.00 | Fair | CLR | 75.2 | 48.6 | 39% | 78 | 29.98 | 1015.5 | ||||||
| 04 | 14:55 | SW 14 | 10.00 | Fair | CLR | 75.9 | 46.2 | 35% | 78 | 29.99 | 1015.9 | ||||||
| 04 | 13:55 | SW 12 | 10.00 | A Few Clouds | FEW190 | 76.5 | 43.5 | 31% | 78 | 30.01 | 1016.5 | ||||||
| 04 | 12:55 | SW 13 | 10.00 | A Few Clouds | FEW180 | 76.1 | 46.4 | 76.6 | 60.6 | 35% | 78 | 30.02 | 1016.9 | ||||
| 04 | 11:55 | Calm | 10.00 | A Few Clouds | FEW200 | 75.4 | 39 | 27% | 77 | 30.04 | 1017.6 | ||||||
| 04 | 10:55 | E 7 | 10.00 | Fair | CLR | 75 | 41.5 | 30% | 77 | 30.06 | 1018.2 | ||||||
| 04 | 09:55 | E 5 | 10.00 | Fair | CLR | 72.5 | 45.5 | 38% | 30.06 | 1018.2 | |||||||
| 04 | 08:55 | E 8 | 10.00 | A Few Clouds | FEW250 | 68.9 | 46 | 44% | 30.06 | 1018.2 | |||||||
| 04 | 07:55 | NE 6 | 10.00 | Fair | CLR | 65.1 | 46.6 | 51% | 30.05 | 1017.9 | |||||||
| 04 | 06:55 | NE 3 | 10.00 | Fair | CLR | 60.4 | 47.8 | 61.2 | 55.8 | 63% | 30.04 | 1017.6 | |||||
| 04 | 05:55 | NE 5 | 10.00 | Fair | CLR | 58.6 | 45.7 | 62% | 30.04 | 1017.6 | |||||||
| 04 | 04:55 | NE 5 | 10.00 | Fair | CLR | 57.6 | 49.6 | 75% | 30.03 | 1017.2 | |||||||
| 04 | 03:55 | N 3 | 10.00 | Fair | CLR | 57.4 | 52.9 | 85% | 30.04 | 1017.6 | |||||||
| 04 | 02:55 | N 5 | 10.00 | Fair | CLR | 57.6 | 53.1 | 85% | 30.04 | 1017.6 | |||||||
| 04 | 01:55 | N 3 | 10.00 | Fair | CLR | 57.9 | 53.8 | 86% | 30.05 | 1017.9 | |||||||
| 04 | 00:55 | NE 3 | 10.00 | Fair | CLR | 59 | 54.1 | 71.1 | 58.6 | 84% | 30.07 | 1018.6 | |||||
| 03 | 23:55 | N 3 | 10.00 | Fair | CLR | 59 | 53.4 | 82% | 30.06 | 1018.2 | |||||||
| 03 | 21:55 | NW 6 | 10.00 | Fair | CLR | 62.6 | 53.4 | 72% | 30.06 | 1018.2 | |||||||
| 03 | 20:55 | NW 5 | 10.00 | Fair | CLR | 65.1 | 51.8 | 62% | 30.05 | 1017.9 | |||||||
| 03 | 19:55 | NW 8 | 10.00 | Fair | CLR | 65.7 | 51.8 | 61% | 30.03 | 1017.2 | |||||||
| 03 | 18:55 | NW 14 | 10.00 | Fair | CLR | 71.2 | 48.7 | 77 | 71.2 | 45% | 30.02 | 1016.9 | |||||
| 03 | 17:55 | NW 13 | 10.00 | Fair | CLR | 73 | 48.6 | 42% | 30.02 | 1016.9 | |||||||
| 03 | 16:55 | W 13 | 10.00 | Fair | CLR | 73.9 | 48.7 | 41% | 30.03 | 1017.2 | |||||||
| 03 | 15:55 | W 14 | 10.00 | Fair | CLR | 75.2 | 47.8 | 38% | 77 | 30.04 | 1017.6 | ||||||
| 03 | 14:55 | N 14 | 10.00 | Fair | CLR | 76.8 | 40.3 | 27% | 77 | 30.05 | 1017.9 | ||||||
| 03 | 13:55 | N 7 | 10.00 | Fair | CLR | 76.1 | 39.7 | 27% | 77 | 30.08 | 1018.9 | ||||||
| 03 | 12:55 | N 8 | 10.00 | A Few Clouds | FEW180 | 74.8 | 39.6 | 74.8 | 59 | 28% | 30.09 | 1019.3 | |||||
| 03 | 11:55 | NE 9 | 10.00 | Fair | CLR | 73.2 | 36.3 | 26% | 30.12 | 1020.3 | |||||||
| 03 | 10:55 | N 10 | 10.00 | Fair | CLR | 72.1 | 37.2 | 28% | 30.14 | 1020.9 | |||||||
| 03 | 09:55 | NE 8 | 10.00 | Fair | CLR | 70.7 | 40.1 | 33% | 30.14 | 1020.9 | |||||||
| 03 | 08:55 | N 12 | 10.00 | Fair | CLR | 66.2 | 43.7 | 44% | 30.11 | 1019.9 | |||||||
| 03 | 07:55 | N 10 | 10.00 | Fair | CLR | 62.4 | 45.1 | 53% | 30.11 | 1019.9 | |||||||
| 03 | 06:55 | N 9 | 10.00 | Fair | CLR | 58.8 | 44.6 | 61.2 | 57 | 59% | 30.1 | 1019.6 | |||||
| 03 | 05:55 | N 7 | 10.00 | Fair | CLR | 57.6 | 45.1 | 63% | 30.08 | 1018.9 | |||||||
| 03 | 04:55 | N 6 | 10.00 | Fair | CLR | 58.5 | 45.1 | 61% | 30.06 | 1018.2 | |||||||
| 03 | 03:55 | N 6 | 10.00 | Fair | CLR | 59.5 | 43.9 | 56% | 30.06 | 1018.2 | |||||||
| 03 | 02:55 | N 7 | 10.00 | Fair | CLR | 59.9 | 42.3 | 52% | 30.06 | 1018.2 | |||||||
| 03 | 01:55 | N 8 | 10.00 | Fair | CLR | 60.8 | 44.1 | 54% | 30.05 | 1017.9 | |||||||
| Date | Time (cdt) | Wind (mph) | Vis. (mi.) | Weather | Sky Cond. | Air | Dwpt | Max. | Min. | Relative Humidity | Wind Chill (°F) | Heat Index (°F) | altimeter (in) | sea level (mb) | 1 hr | 3 hr | 6 hr |
| 6 hour | |||||||||||||||||
| Temperature (ºF) | Pressure | Precipitation (in) | |||||||||||||||